Minot, ND

4:58 AM CDT on July 23, 2016 (GMT -0500)
Edgeview Estates | | Change Station
Active Advisory: Flash Flood Watch

Elev 1752 ft 48.21 °N, 101.33 °W | Updated 1 second ago

Rain
Rain
66.6 °F
Feels Like 66.6 °F
N
10.0
Wind Variable Wind from SE
Gusts 13.0 mph

Today
High -- | Low -- °F
--% Chance of Precip.
Yesterday
High -- | Low -- °F
Precip. -- in
Pressure 29.79 in
Visibility 10.0 miles
Clouds Clear
Dew Point 62 °F
Humidity 86%
Rainfall 0.14 in
Snow Depth Not available.
6:10 AM 9:32 PM
Waning Gibbous, 86% visible
METAR KMOT 230954Z AUTO 15009KT 10SM CLR 21/19 A2982 RMK AO2 LTG DSNT SE-SW RAE33 SLP087 P0006 T02060189
Pressure 29.79 in
Visibility 10.0 miles
Clouds Clear
Dew Point 62 °F
Humidity 86%
Rainfall 0.14 in
Snow Depth Not available.
6:10 AM 9:32 PM
Waning Gibbous, 86% visible
METAR KMOT 230954Z AUTO 15009KT 10SM CLR 21/19 A2982 RMK AO2 LTG DSNT SE-SW RAE33 SLP087 P0006 T02060189

10-Day Weather Forecast

Almanac

Astronomy

Jul. 23, 2016 Rise Set
Actual Time
Civil Twilight
Nautical Twilight
Astronomical Twilight
Moon
Length of Visible Light
Length of Day
Tomorrow will be .
, % of the Moon is Illuminated

Today's Extremes

State Highs State Lows

Community

WunderPhotos

Upload Photos

1,926,790 photos uploaded!

WunderBlog® & News

Nearby

Air Quality

  Air Quality AQ Index Pollutant
Not available.

Snow Depth

Station Depth Elevation

Earthquake Activity

City Distance Mag. Time & Date
Minimum magnitude displayed is 2.5.

Coastal Water Temperatures

Place Temperature

Stations

Nearby Weather Stations

Station Location Temp. Windchill Dew Point Humidity Wind Precip. Elev Updated Type
                   

Watches & Warnings

Flash Flood Watch
Issued: 3:52 AM CDT Jul. 23, 2016 – National Weather Service

... Flash Flood Watch remains in effect until 1 PM CDT this
afternoon...

The Flash Flood Watch continues for

* portions of north central North Dakota and northwest North
Dakota... including the following areas... in north central
North Dakota... Bottineau... McHenry... Pierce... Renville...
Rolette and Ward. In northwest North Dakota... Burke and
Mountrail.

* Until 1 PM CDT this afternoon.

* Heavy rainfall possible... with rainfall rates possibly
exceeding 2 inches per hour.

* Excessive runoff will be possible that may produce flooding of
creeks... streams... and low lying areas.

Precautionary/preparedness actions...

A Flash Flood Watch means that conditions may develop that lead
to flash flooding. Flash flooding is a very dangerous situation.

You should monitor later forecasts and be prepared to take action
should flash flood warnings be issued.



KS/cjs